Naval Base, Virginia
Current Conditions -  °F | °C
As of 6:59 PM on Sunday 23 Nov 2014 (Local Time) from KNGU Reporting Station
Overcast Overcast  
Wind Chill: 62°   Ceiling: 4000
Heat Index: 62°   Visibility: 10mi
Dew Point: 56°   Wind: 8mph
Humidity: 80%   Direction: 130°SE
Pressure: 30.05"   Gusts: NA
Location:  36.9343°N, 76.284°W
Report Text: KNGU 232359Z 13007KT 10SM BKN040 OVC048 17/13 A3005 RMK AO2 RAE01 SLP177 P0000 60000 T01670133 10178 20133 58023
Loading
Personal Weather Stations






























Interactive Weather Map New forecast layout! Learn more

10-Day Weather Forecast

Advertisements
Track Severe Weather on mobile